Time;durP1;ratioP1;P1;durP2;ratioP2;P2;SDS_P1;SDS_P2;PMS_P1;PMS_P2;Temp;Humidity;BMP_temperature;BMP_pressure;BME280_temperature;BME280_humidity;BME280_pressure;Samples;Min_cycle;Max_cycle;Signal;HPM_P1;HPM_P2
2023/03/28 00:01:51;;;;;;;;;1.00;1.00;;;;;8.29;68.99;101051.63;5073093;28;45380;-79
2023/03/28 00:04:21;;;;;;;;;0.00;0.00;;;;;8.23;69.59;101025.31;5088630;28;45311;-78
2023/03/28 00:06:52;;;;;;;;;1.75;1.00;;;;;8.20;69.73;101018.25;5078574;28;46017;-74
2023/03/28 00:09:19;;;;;;;;;1.00;0.00;;;;;8.30;69.64;101032.59;5069359;28;45472;-78
2023/03/28 00:11:45;;;;;;;;;1.00;0.00;;;;;8.20;70.41;101019.94;5063956;28;45452;-78
2023/03/28 00:14:13;;;;;;;;;1.00;1.00;;;;;8.16;70.30;101012.00;5070218;28;45469;-77
2023/03/28 00:16:40;;;;;;;;;1.00;0.00;;;;;8.17;70.40;101031.09;5073640;28;45994;-78
2023/03/28 00:19:08;;;;;;;;;1.00;1.00;;;;;8.08;70.22;101015.09;5057582;28;45544;-79
2023/03/28 00:21:36;;;;;;;;;0.75;0.75;;;;;8.16;70.13;101027.63;5064363;28;45536;-78
2023/03/28 00:24:04;;;;;;;;;0.00;0.00;;;;;8.14;70.07;101015.38;5067842;28;45454;-76
2023/03/28 00:26:33;;;;;;;;;1.75;1.00;;;;;8.19;69.99;101018.19;5072406;28;46113;-79
2023/03/28 00:29:01;;;;;;;;;0.75;0.50;;;;;8.17;70.32;101013.78;5055798;28;45552;-78
2023/03/28 00:31:28;;;;;;;;;1.00;1.00;;;;;8.21;70.99;101016.53;5070221;28;45438;-78
2023/03/28 00:33:55;;;;;;;;;1.00;1.00;;;;;8.05;71.21;101012.31;5072256;28;45464;-79
2023/03/28 00:36:21;;;;;;;;;0.00;0.00;;;;;7.87;71.31;101005.41;5066799;28;45398;-77
2023/03/28 00:38:48;;;;;;;;;0.00;0.00;;;;;7.85;70.11;101009.66;5065989;28;45432;-77
2023/03/28 00:41:17;;;;;;;;;1.00;0.00;;;;;7.86;70.10;101010.53;5070835;28;45507;-78
2023/03/28 00:43:45;;;;;;;;;2.00;1.00;;;;;7.98;70.26;101037.16;5067953;28;45272;-78
2023/03/28 00:46:34;;;;;;;;;4.50;3.00;;;;;7.87;70.30;101021.03;5057813;28;48028;-79
2023/03/28 00:49:05;;;;;;;;;2.00;2.00;;;;;7.95;69.78;101039.59;5051938;28;45359;-78
2023/03/28 00:51:37;;;;;;;;;4.00;2.00;;;;;7.87;70.05;101036.63;5072037;28;45447;-78
2023/03/28 00:54:06;;;;;;;;;14.00;13.25;;;;;7.87;69.99;101035.75;5053676;28;45538;-76
2023/03/28 00:56:36;;;;;;;;;5.00;3.50;;;;;7.87;70.02;101040.94;5057656;28;47157;-78
2023/03/28 00:59:06;;;;;;;;;1.00;1.00;;;;;7.83;69.85;101034.69;5054238;28;45624;-78
2023/03/28 01:01:32;;;;;;;;;2.00;1.00;;;;;7.78;70.31;101025.78;5068119;28;45635;-78
2023/03/28 01:04:01;;;;;;;;;0.75;0.50;;;;;7.81;70.73;101030.25;5069402;28;45430;-77
2023/03/28 01:06:34;;;;;;;;;0.00;0.00;;;;;7.81;70.67;101018.13;5064803;28;45318;-77
2023/03/28 01:09:03;;;;;;;;;1.00;1.00;;;;;7.81;70.81;101019.84;5054116;28;45476;-79
2023/03/28 01:11:31;;;;;;;;;1.00;1.00;;;;;7.82;70.62;101012.13;5071090;28;45272;-78
2023/03/28 01:14:01;;;;;;;;;1.00;1.00;;;;;7.82;70.54;101008.59;5051224;28;45656;-78
2023/03/28 01:16:29;;;;;;;;;0.00;0.00;;;;;7.75;70.81;100986.63;5072709;28;45455;-78
2023/03/28 01:19:00;;;;;;;;;1.00;1.00;;;;;7.81;70.45;100996.44;5068936;28;45399;-75
2023/03/28 01:22:11;;;;;;;;;0.00;0.00;;;;;7.81;70.83;100988.63;5073303;28;45321;-77
2023/03/28 01:25:14;;;;;;;;;0.50;0.00;;;;;7.80;71.14;100992.94;5042292;28;45384;-78
2023/03/28 01:27:50;;;;;;;;;1.00;1.00;;;;;7.75;71.49;100978.81;5071964;28;46212;-78
2023/03/28 01:30:32;;;;;;;;;0.75;0.75;;;;;7.67;71.09;100982.75;5071505;28;45446;-78
2023/03/28 01:33:27;;;;;;;;;0.00;0.00;;;;;7.49;71.83;100982.75;5052512;28;45540;-78
2023/03/28 01:36:14;;;;;;;;;1.00;1.00;;;;;7.47;72.13;100972.28;5066605;28;45487;-78
2023/03/28 01:39:15;;;;;;;;;1.50;1.00;;;;;7.43;72.52;100966.84;5068914;28;45855;-78
2023/03/28 01:41:56;;;;;;;;;0.00;0.00;;;;;7.32;72.20;100942.91;5025636;28;45575;-78
2023/03/28 01:44:36;;;;;;;;;1.00;0.00;;;;;7.48;71.98;100950.66;5064971;28;45260;-78
2023/03/28 01:47:46;;;;;;;;;2.00;1.00;;;;;7.50;72.73;100951.63;5067285;28;45364;-78
2023/03/28 01:50:17;;;;;;;;;0.75;0.75;;;;;7.44;73.29;100935.75;5064567;28;46060;-78
2023/03/28 01:53:02;;;;;;;;;1.75;1.50;;;;;7.49;73.25;100942.03;5064386;28;45319;-78
2023/03/28 01:55:47;;;;;;;;;1.00;1.00;;;;;7.47;72.43;100932.41;5050810;28;45420;-77
2023/03/28 01:58:20;;;;;;;;;1.00;1.00;;;;;7.50;71.25;100929.94;5070566;28;45285;-77
2023/03/28 02:00:55;;;;;;;;;0.75;0.75;;;;;7.45;71.87;100918.44;5069577;28;46099;-78
2023/03/28 02:03:26;;;;;;;;;0.25;0.00;;;;;7.46;72.68;100922.78;5058417;28;45324;-78
2023/03/28 02:05:55;;;;;;;;;1.25;1.00;;;;;7.54;72.56;100943.16;5074232;28;45481;-78
2023/03/28 02:08:27;;;;;;;;;2.00;0.50;;;;;7.57;72.40;100932.00;5078400;28;45359;-78
2023/03/28 02:10:56;;;;;;;;;1.00;0.00;;;;;7.51;72.78;100914.41;5072094;28;45562;-78
2023/03/28 02:13:29;;;;;;;;;0.25;0.25;;;;;7.53;72.83;100907.56;5073629;28;45310;-78
2023/03/28 02:15:58;;;;;;;;;2.00;0.50;;;;;7.49;72.41;100908.25;5077792;28;45544;-78
2023/03/28 02:18:30;;;;;;;;;1.00;1.00;;;;;7.61;72.40;100922.66;5076535;28;45461;-78
2023/03/28 02:21:04;;;;;;;;;1.50;1.00;;;;;7.66;71.81;100929.88;5077596;28;46046;-79
2023/03/28 02:23:45;;;;;;;;;1.00;1.00;;;;;7.57;71.19;100925.09;5057272;28;45368;-78
2023/03/28 02:26:11;;;;;;;;;0.75;0.50;;;;;7.44;71.60;100917.56;5057111;28;45269;-78
2023/03/28 02:28:39;;;;;;;;;1.00;1.00;;;;;7.42;71.46;100910.47;5077059;27;45369;-78
2023/03/28 02:31:06;;;;;;;;;2.00;1.00;;;;;7.25;71.95;100887.16;5077908;28;46086;-78
2023/03/28 02:33:40;;;;;;;;;1.75;1.00;;;;;7.39;72.13;100923.34;5075152;28;45323;-78
2023/03/28 02:36:22;;;;;;;;;2.00;1.00;;;;;7.37;71.88;100912.84;5077051;28;45481;-78
2023/03/28 02:39:12;;;;;;;;;2.00;1.75;;;;;7.29;71.85;100909.00;5052975;28;45493;-77
2023/03/28 02:42:15;;;;;;;;;1.00;0.50;;;;;6.97;72.89;100909.19;5072406;28;45466;-76
2023/03/28 02:45:05;;;;;;;;;1.50;1.00;;;;;6.90;73.41;100907.09;5039251;28;45472;-79
2023/03/28 02:48:05;;;;;;;;;0.00;0.00;;;;;6.80;73.86;100902.22;5077032;28;45423;-78
2023/03/28 02:50:47;;;;;;;;;1.00;1.00;;;;;6.80;73.27;100902.22;5076407;28;45323;-78
2023/03/28 02:53:26;;;;;;;;;2.00;0.75;;;;;6.80;72.98;100897.03;5051400;28;45329;-77
2023/03/28 02:56:06;;;;;;;;;0.50;0.50;;;;;6.75;73.60;100880.34;5070130;28;45480;-78
2023/03/28 02:58:47;;;;;;;;;1.00;0.00;;;;;6.83;74.06;100886.81;5058108;28;45430;-77
2023/03/28 03:01:16;;;;;;;;;0.25;0.00;;;;;6.83;74.01;100876.44;5076956;27;45345;-77
2023/03/28 03:03:42;;;;;;;;;2.00;0.25;;;;;6.88;73.94;100874.06;5076719;28;45338;-77
2023/03/28 03:06:08;;;;;;;;;0.00;0.00;;;;;6.92;73.67;100873.38;5076345;28;45316;-77
2023/03/28 03:08:34;;;;;;;;;1.00;0.00;;;;;6.81;73.87;100861.59;5080458;28;45465;-78
2023/03/28 03:11:00;;;;;;;;;1.00;1.00;;;;;6.85;73.82;100868.72;5085777;28;45465;-77
2023/03/28 03:13:25;;;;;;;;;1.00;0.75;;;;;6.90;73.03;100872.44;5077550;28;45431;-74
2023/03/28 03:15:54;;;;;;;;;0.75;0.75;;;;;6.94;72.92;100887.34;5075512;28;45216;-75
2023/03/28 03:18:21;;;;;;;;;1.00;1.00;;;;;6.86;72.53;100884.34;5076582;28;45371;-77
2023/03/28 03:20:49;;;;;;;;;1.00;1.00;;;;;6.91;72.64;100890.69;5076693;28;45353;-78
2023/03/28 03:23:15;;;;;;;;;1.00;0.25;;;;;6.91;72.42;100888.09;5075876;28;45389;-78
2023/03/28 03:25:42;;;;;;;;;1.00;1.00;;;;;6.90;72.35;100888.94;5075913;28;45366;-78
2023/03/28 03:28:07;;;;;;;;;1.00;1.00;;;;;6.89;71.90;100889.72;5051919;28;45306;-78
2023/03/28 03:30:33;;;;;;;;;0.25;0.25;;;;;6.81;72.21;100872.00;5066745;28;45324;-78
2023/03/28 03:33:04;;;;;;;;;0.00;0.00;;;;;6.86;72.39;100883.47;5075315;28;45402;-78
2023/03/28 03:35:32;;;;;;;;;0.50;0.50;;;;;6.79;72.59;100866.72;5075538;28;45423;-78
2023/03/28 03:38:01;;;;;;;;;1.00;1.00;;;;;6.85;72.71;100884.31;5076241;28;45668;-78
2023/03/28 03:40:27;;;;;;;;;1.75;1.00;;;;;6.86;72.64;100875.69;5075197;28;45537;-78
2023/03/28 03:42:52;;;;;;;;;2.00;1.00;;;;;6.81;73.00;100865.06;5058132;28;46234;-78
2023/03/28 03:45:18;;;;;;;;;2.00;1.00;;;;;6.83;73.88;100865.16;5072596;28;45375;-78
2023/03/28 03:47:43;;;;;;;;;1.00;1.00;;;;;6.80;73.60;100868.47;5074695;28;45287;-77
2023/03/28 03:50:09;;;;;;;;;1.25;1.00;;;;;6.83;74.07;100866.03;5079110;27;45259;-78
2023/03/28 03:52:35;;;;;;;;;1.00;0.00;;;;;6.74;73.23;100844.81;5078398;28;47789;-78
2023/03/28 03:55:01;;;;;;;;;1.50;1.00;;;;;6.78;73.30;100841.53;5079400;28;45370;-78
2023/03/28 03:57:26;;;;;;;;;0.50;0.50;;;;;6.85;73.13;100848.84;5080214;28;45209;-78
2023/03/28 03:59:52;;;;;;;;;1.00;0.75;;;;;6.79;74.24;100856.31;5079862;28;45503;-77
2023/03/28 04:02:18;;;;;;;;;1.00;1.00;;;;;6.59;74.45;100857.91;5079352;28;45855;-78
2023/03/28 04:04:44;;;;;;;;;0.25;0.00;;;;;6.60;73.81;100864.00;5061644;28;45386;-76
2023/03/28 04:07:11;;;;;;;;;1.00;1.00;;;;;6.62;73.93;100862.38;5061047;28;45635;-78
2023/03/28 04:09:36;;;;;;;;;1.00;1.00;;;;;6.51;74.66;100841.94;5079348;27;45397;-78
2023/03/28 04:12:04;;;;;;;;;1.25;0.25;;;;;6.52;74.61;100845.44;5078927;28;45975;-77
2023/03/28 04:14:29;;;;;;;;;0.50;0.00;;;;;6.47;73.92;100829.63;5060567;28;45547;-78
2023/03/28 04:16:55;;;;;;;;;1.00;1.00;;;;;6.68;74.18;100849.69;5078793;28;45328;-78
2023/03/28 04:19:23;;;;;;;;;0.00;0.00;;;;;6.69;74.25;100841.09;5078933;28;45362;-78
2023/03/28 04:21:51;;;;;;;;;1.00;1.00;;;;;6.68;72.59;100829.81;5077222;28;45327;-77
2023/03/28 04:24:19;;;;;;;;;0.00;0.00;;;;;6.74;72.79;100835.34;5059832;28;45466;-78
2023/03/28 04:26:49;;;;;;;;;1.00;1.00;;;;;6.69;72.80;100825.53;5078895;28;45359;-75
2023/03/28 04:29:16;;;;;;;;;0.25;0.00;;;;;6.72;73.02;100836.94;5079431;28;45424;-77
2023/03/28 04:31:49;;;;;;;;;1.75;1.00;;;;;6.71;73.18;100839.47;5078781;28;45975;-78
2023/03/28 04:34:15;;;;;;;;;1.00;0.00;;;;;6.63;73.79;100825.22;5079047;28;45595;-77
2023/03/28 04:36:42;;;;;;;;;2.50;1.00;;;;;6.69;73.22;100831.59;5078231;28;45445;-75
2023/03/28 04:39:08;;;;;;;;;0.00;0.00;;;;;6.57;73.36;100824.09;5078884;27;45612;-77
2023/03/28 04:41:34;;;;;;;;;1.00;1.00;;;;;6.55;73.13;100814.44;5078337;28;45384;-77
2023/03/28 04:44:00;;;;;;;;;1.00;0.00;;;;;6.65;73.43;100839.16;5060558;28;45519;-78
2023/03/28 04:46:27;;;;;;;;;1.00;1.00;;;;;6.59;73.33;100834.56;5078717;28;45528;-76
2023/03/28 04:48:53;;;;;;;;;0.00;0.00;;;;;6.61;73.49;100839.81;5060680;28;45603;-78
2023/03/28 04:51:18;;;;;;;;;2.00;2.00;;;;;6.59;73.60;100831.06;5078973;28;45330;-77
2023/03/28 04:53:44;;;;;;;;;1.00;1.00;;;;;6.52;73.63;100822.94;5078791;28;45304;-77
2023/03/28 04:56:12;;;;;;;;;1.00;0.00;;;;;6.51;73.13;100826.38;5077694;28;45460;-77
2023/03/28 04:58:40;;;;;;;;;3.00;3.00;;;;;6.60;72.75;100840.63;5078931;28;45806;-78
2023/03/28 05:01:09;;;;;;;;;2.25;1.00;;;;;6.54;72.46;100828.22;5077619;28;46185;-75
2023/03/28 05:03:36;;;;;;;;;1.00;1.00;;;;;6.63;72.61;100841.69;5078538;28;45184;-78
2023/03/28 05:06:01;;;;;;;;;0.25;0.25;;;;;6.52;73.06;100827.25;5078303;28;45520;-75
2023/03/28 05:08:28;;;;;;;;;1.75;1.00;;;;;6.57;73.08;100839.66;5078010;27;45354;-78
2023/03/28 05:10:54;;;;;;;;;1.00;1.00;;;;;6.45;73.17;100810.50;5060250;28;45425;-78
2023/03/28 05:13:20;;;;;;;;;2.25;2.00;;;;;6.51;73.48;100826.38;5078067;28;45291;-78
2023/03/28 05:15:47;;;;;;;;;17.75;16.00;;;;;6.54;73.60;100831.69;5073833;28;45521;-77
2023/03/28 05:18:14;;;;;;;;;5.00;5.00;;;;;6.52;73.40;100832.44;5061895;28;45503;-76
2023/03/28 05:20:40;;;;;;;;;2.00;2.00;;;;;6.49;73.74;100838.38;5078646;28;46095;-76
2023/03/28 05:23:06;;;;;;;;;1.75;1.25;;;;;6.51;73.96;100838.47;5059545;28;45275;-75
2023/03/28 05:25:32;;;;;;;;;2.00;1.00;;;;;6.46;74.60;100847.72;5077730;28;45496;-76
2023/03/28 05:27:57;;;;;;;;;0.50;0.50;;;;;6.45;74.22;100861.50;5078370;28;45327;-75
2023/03/28 05:30:23;;;;;;;;;2.00;1.00;;;;;6.36;74.04;100862.78;5060034;28;45397;-76
2023/03/28 05:32:49;;;;;;;;;1.50;0.50;;;;;6.36;74.19;100877.47;5077452;28;45932;-76
2023/03/28 05:35:15;;;;;;;;;2.00;1.00;;;;;6.25;74.06;100860.47;5078800;28;45370;-75
2023/03/28 05:37:42;;;;;;;;;3.00;2.75;;;;;6.34;73.57;100873.91;5078555;28;45417;-75
2023/03/28 05:40:09;;;;;;;;;5.00;5.00;;;;;6.35;74.65;100883.50;5059913;28;46685;-77
2023/03/28 05:42:36;;;;;;;;;19.75;18.00;;;;;6.29;74.01;100871.09;5059687;28;45509;-75
2023/03/28 05:45:05;;;;;;;;;6.00;2.50;;;;;6.28;74.10;100869.28;5077389;28;45583;-76
2023/03/28 05:47:30;;;;;;;;;2.00;2.00;;;;;6.30;74.37;100862.47;5059546;28;45605;-76
2023/03/28 05:49:56;;;;;;;;;2.00;1.00;;;;;6.43;74.41;100883.91;5057807;28;46432;-75
2023/03/28 05:52:22;;;;;;;;;1.75;1.00;;;;;6.46;73.73;100873.66;5077712;27;45551;-75
2023/03/28 05:54:47;;;;;;;;;2.00;2.00;;;;;6.49;74.09;100869.53;5076057;28;45445;-76
2023/03/28 05:57:13;;;;;;;;;1.50;1.00;;;;;6.50;74.13;100863.50;5076798;28;45422;-75
2023/03/28 05:59:39;;;;;;;;;7.00;7.00;;;;;6.53;73.59;100867.97;5076396;28;46446;-77
2023/03/28 06:02:16;;;;;;;;;2.50;2.00;;;;;6.53;73.16;100865.41;5076440;28;45863;-76
2023/03/28 06:04:43;;;;;;;;;3.00;2.25;;;;;6.45;73.36;100836.44;5075039;28;45460;-76
2023/03/28 06:07:10;;;;;;;;;3.00;2.75;;;;;6.54;73.25;100855.06;5076171;28;45545;-75
2023/03/28 06:09:37;;;;;;;;;1.00;1.00;;;;;6.47;73.63;100840.00;5075454;28;45487;-77
2023/03/28 06:12:03;;;;;;;;;1.25;1.00;;;;;6.67;73.54;100871.28;5075260;28;45396;-75
2023/03/28 06:14:30;;;;;;;;;10.75;9.25;;;;;6.69;73.91;100878.34;5072876;28;45488;-76
2023/03/28 06:16:56;;;;;;;;;33.75;29.00;;;;;6.65;73.18;100853.03;5070606;28;45491;-75
2023/03/28 06:19:21;;;;;;;;;6.25;5.50;;;;;6.81;73.07;100867.69;5078691;28;45568;-74
2023/03/28 06:21:47;;;;;;;;;10.00;8.00;;;;;6.80;73.09;100871.06;5075845;28;45448;-75
2023/03/28 06:24:13;;;;;;;;;38.75;36.50;;;;;6.78;72.26;100857.13;5075206;28;45565;-74
2023/03/28 06:26:38;;;;;;;;;52.50;45.00;;;;;6.97;71.56;100880.59;5076625;28;45441;-74
2023/03/28 06:29:04;;;;;;;;;44.25;37.50;;;;;7.02;71.07;100866.94;5075371;28;45282;-75
2023/03/28 06:31:31;;;;;;;;;24.00;23.50;;;;;7.10;70.64;100876.91;5075351;28;45525;-75
2023/03/28 06:33:56;;;;;;;;;14.50;14.50;;;;;7.10;70.15;100860.41;5076339;28;45440;-75
2023/03/28 06:36:22;;;;;;;;;11.00;8.50;;;;;7.30;69.14;100866.59;5076400;28;45370;-76
2023/03/28 06:38:49;;;;;;;;;7.75;7.00;;;;;7.46;67.76;100870.81;5075351;28;45430;-75
2023/03/28 06:41:15;;;;;;;;;3.00;3.00;;;;;7.66;67.14;100872.66;5075791;28;45607;-75
2023/03/28 06:43:41;;;;;;;;;3.00;3.00;;;;;7.88;64.77;100856.34;5075834;28;45358;-74
2023/03/28 06:46:07;;;;;;;;;0.00;0.00;;;;;8.11;64.31;100857.34;5076385;28;45461;-75
2023/03/28 06:48:33;;;;;;;;;1.25;1.00;;;;;8.26;63.15;100838.94;5075715;28;46037;-75
2023/03/28 06:50:59;;;;;;;;;1.50;1.50;;;;;8.52;62.08;100841.84;5074615;28;45245;-75
2023/03/28 06:53:25;;;;;;;;;1.75;1.00;;;;;8.77;60.65;100854.16;5075369;28;45453;-75
2023/03/28 06:55:52;;;;;;;;;3.00;1.50;;;;;8.95;59.31;100844.53;5073709;28;45390;-76
2023/03/28 06:58:19;;;;;;;;;3.00;2.00;;;;;9.17;58.41;100861.00;5062842;28;46785;-75
2023/03/28 07:00:45;;;;;;;;;1.00;1.00;;;;;9.30;57.97;100852.88;5074851;28;45572;-76
2023/03/28 07:03:11;;;;;;;;;2.00;2.00;;;;;9.80;57.85;100875.66;5063138;28;45438;-75
2023/03/28 07:05:41;;;;;;;;;3.00;2.75;;;;;12.91;51.20;100860.31;5076195;28;45519;-75
2023/03/28 07:08:08;;;;;;;;;3.25;3.00;;;;;15.79;46.26;100871.31;5076632;28;46030;-74
2023/03/28 07:10:35;;;;;;;;;4.00;3.00;;;;;17.79;46.02;100868.03;5076560;28;45409;-76
2023/03/28 07:13:01;;;;;;;;;2.00;2.00;;;;;19.50;41.12;100857.78;5077900;28;45528;-76
2023/03/28 07:15:26;;;;;;;;;1.67;1.00;;;;;20.84;39.23;100836.91;5077642;28;45416;-76
2023/03/28 07:17:52;;;;;;;;;4.67;3.67;;;;;22.10;35.81;100818.81;5079160;28;45369;-78
2023/03/28 07:20:19;;;;;;;;;1.33;1.33;;;;;23.10;32.23;100796.91;5062836;28;46147;-79
2023/03/28 07:22:45;;;;;;;;;3.00;3.00;;;;;24.08;31.83;100810.13;5082185;27;45370;-79
2023/03/28 07:25:11;;;;;;;;;3.00;2.00;;;;;24.83;28.93;100786.16;5082442;28;45492;-79
2023/03/28 07:27:36;;;;;;;;;3.00;3.00;;;;;25.83;25.73;100818.25;5079583;28;45846;-77
2023/03/28 07:30:03;;;;;;;;;12.00;10.67;;;;;26.42;26.56;100782.56;5078045;28;45703;-77
2023/03/28 07:32:29;;;;;;;;;2.00;2.00;;;;;27.20;25.82;100795.19;5079178;27;45493;-78
2023/03/28 07:34:55;;;;;;;;;2.00;1.33;;;;;27.68;25.04;100789.00;5078591;28;45583;-77
2023/03/28 07:37:20;;;;;;;;;2.00;1.00;;;;;28.17;22.81;100789.84;5078640;28;45457;-79
2023/03/28 07:39:46;;;;;;;;;0.67;0.67;;;;;28.31;22.49;100769.59;5064537;28;45450;-78
2023/03/28 07:42:14;;;;;;;;;1.00;0.67;;;;;28.58;21.81;100764.94;5079077;28;45531;-78
2023/03/28 07:44:40;;;;;;;;;2.00;2.00;;;;;29.09;21.18;100773.56;5079094;28;45402;-78
2023/03/28 07:47:07;;;;;;;;;0.67;0.67;;;;;29.42;20.92;100768.50;5079276;28;45513;-78
2023/03/28 07:49:33;;;;;;;;;2.33;2.00;;;;;29.60;19.98;100766.78;5078794;28;45372;-81
2023/03/28 07:51:59;;;;;;;;;3.00;2.67;;;;;29.82;20.33;100766.69;5078968;28;45379;-76
2023/03/28 07:54:27;;;;;;;;;2.00;2.00;;;;;30.33;21.94;100770.59;5079733;28;45418;-80
2023/03/28 07:56:52;;;;;;;;;2.00;2.00;;;;;31.03;19.40;100770.69;5079300;28;45646;-80
2023/03/28 07:59:18;;;;;;;;;1.00;1.00;;;;;31.04;19.21;100750.88;5078441;28;45391;-85
2023/03/28 08:01:46;;;;;;;;;4.33;2.33;;;;;31.30;18.68;100754.03;5078975;28;45472;-84
2023/03/28 08:04:12;;;;;;;;;2.67;2.67;;;;;31.48;19.30;100765.69;5076970;28;45626;-78
2023/03/28 08:06:39;;;;;;;;;6.00;5.67;;;;;31.91;18.62;100764.22;5078025;28;45564;-79
2023/03/28 08:09:07;;;;;;;;;3.00;3.00;;;;;32.16;18.33;100751.16;5078097;28;45444;-78
2023/03/28 08:11:36;;;;;;;;;1.67;1.67;;;;;32.42;18.13;100763.19;5077616;28;45714;-79
2023/03/28 08:14:04;;;;;;;;;2.00;2.00;;;;;32.65;17.51;100767.25;5077112;28;45368;-77
2023/03/28 08:16:30;;;;;;;;;2.00;1.67;;;;;32.84;17.32;100778.72;5078163;28;46042;-81
2023/03/28 08:18:56;;;;;;;;;1.67;1.33;;;;;33.00;18.14;100784.09;5077962;28;45394;-79
2023/03/28 08:21:22;;;;;;;;;1.67;1.67;;;;;33.17;17.26;100768.72;5078806;28;45323;-76
2023/03/28 08:23:47;;;;;;;;;3.00;3.00;;;;;33.40;16.57;100770.84;5078986;28;47639;-79
2023/03/28 08:26:13;;;;;;;;;1.67;0.67;;;;;33.25;16.49;100742.91;5077977;28;46018;-83
2023/03/28 08:28:40;;;;;;;;;0.33;0.33;;;;;33.51;17.15;100774.75;5067075;27;45532;-82
2023/03/28 08:31:13;;;;;;;;;1.33;1.00;;;;;33.37;15.66;100784.59;5072067;28;45399;-84
2023/03/28 08:33:43;;;;;;;;;0.00;0.00;;;;;33.63;17.08;100788.41;5076775;28;45877;-79
2023/03/28 08:36:13;;;;;;;;;2.33;1.00;;;;;34.14;16.50;100782.50;5072069;28;46266;-79
2023/03/28 08:38:59;;;;;;;;;1.00;1.00;;;;;34.48;16.34;100783.00;5078883;28;45509;-81
2023/03/28 08:41:52;;;;;;;;;1.00;1.00;;;;;34.26;15.73;100776.28;5075834;28;45525;-79
2023/03/28 08:44:18;;;;;;;;;1.33;0.67;;;;;34.74;15.61;100786.69;5078027;28;45589;-77
2023/03/28 08:46:48;;;;;;;;;0.00;0.00;;;;;34.92;15.13;100781.84;5077274;28;46546;-76
2023/03/28 08:49:16;;;;;;;;;1.67;0.67;;;;;34.85;15.14;100794.09;5076745;28;45371;-77
2023/03/28 08:51:48;;;;;;;;;0.67;0.67;;;;;34.46;15.52;100787.63;5077238;28;45469;-76
2023/03/28 08:54:35;;;;;;;;;1.00;1.00;;;;;34.35;15.82;100791.06;5077396;28;45481;-77
2023/03/28 08:57:05;;;;;;;;;0.00;0.00;;;;;34.59;15.51;100793.97;5077324;28;46150;-76
2023/03/28 08:59:30;;;;;;;;;0.67;0.67;;;;;34.52;16.10;100803.53;5077824;28;45544;-77
2023/03/28 09:01:56;;;;;;;;;0.67;0.67;;;;;34.79;15.03;100797.22;5076677;28;45504;-78
2023/03/28 09:04:33;;;;;;;;;0.67;0.67;;;;;34.30;15.46;100792.31;5074381;28;45522;-78
2023/03/28 09:07:33;;;;;;;;;0.00;0.00;;;;;34.04;15.81;100800.28;5063867;28;46106;-78
2023/03/28 09:10:24;;;;;;;;;1.00;1.00;;;;;33.82;16.79;100803.50;5077640;28;45775;-77
2023/03/28 09:13:00;;;;;;;;;0.67;0.67;;;;;33.75;16.11;100805.75;5069003;28;45454;-76
2023/03/28 09:15:34;;;;;;;;;3.00;2.00;;;;;33.34;17.17;100802.88;5078301;28;45583;-78
2023/03/28 09:18:15;;;;;;;;;0.67;0.67;;;;;33.22;17.36;100809.91;5077713;28;45358;-76
2023/03/28 09:20:54;;;;;;;;;0.33;0.33;;;;;33.34;16.10;100811.00;5063546;28;45911;-77
2023/03/28 09:24:04;;;;;;;;;1.00;0.00;;;;;33.39;16.46;100806.19;5078380;28;45493;-78
2023/03/28 09:26:42;;;;;;;;;1.00;1.00;;;;;33.35;15.82;100796.50;5077890;27;45596;-77
2023/03/28 09:29:18;;;;;;;;;1.00;0.67;;;;;33.63;16.63;100799.25;5076000;28;45584;-76
2023/03/28 09:31:49;;;;;;;;;0.67;0.67;;;;;33.60;16.11;100791.28;5076959;28;45494;-75
2023/03/28 09:34:26;;;;;;;;;7.00;6.00;;;;;32.86;16.62;100787.63;5076414;28;45477;-74
2023/03/28 09:36:56;;;;;;;;;1.33;1.00;;;;;32.50;16.71;100787.94;5076759;28;45381;-73
2023/03/28 09:39:48;;;;;;;;;1.33;1.33;;;;;32.49;17.26;100787.06;5077534;27;46015;-74
2023/03/28 09:42:33;;;;;;;;;0.67;0.33;;;;;32.38;18.28;100781.41;5077038;28;45521;-74
2023/03/28 09:45:03;;;;;;;;;0.67;0.67;;;;;32.38;17.26;100780.53;5077910;28;45842;-74
2023/03/28 09:47:29;;;;;;;;;0.00;0.00;;;;;32.60;17.66;100769.38;5077560;28;45560;-74
2023/03/28 09:49:54;;;;;;;;;0.00;0.00;;;;;32.77;16.59;100773.78;5077101;28;45834;-74
2023/03/28 09:52:20;;;;;;;;;0.67;0.67;;;;;32.64;17.52;100763.69;5075696;27;45413;-74
2023/03/28 09:54:47;;;;;;;;;0.00;0.00;;;;;32.67;16.73;100757.25;5060916;28;45360;-74
2023/03/28 09:57:13;;;;;;;;;2.67;1.33;;;;;32.62;17.27;100756.63;5077271;28;45461;-74
2023/03/28 09:59:39;;;;;;;;;0.67;0.67;;;;;32.65;17.62;100767.25;5077227;28;45918;-74
2023/03/28 10:02:26;;;;;;;;;0.67;0.67;;;;;32.64;17.50;100763.69;5077094;28;45458;-75
2023/03/28 10:04:52;;;;;;;;;1.00;1.00;;;;;32.59;17.11;100762.22;5064000;28;45437;-74
2023/03/28 10:07:32;;;;;;;;;1.00;0.67;;;;;32.61;17.37;100753.06;5077315;28;45500;-74
2023/03/28 10:09:59;;;;;;;;;2.00;2.00;;;;;32.59;17.16;100754.09;5076598;28;45692;-73
2023/03/28 10:12:36;;;;;;;;;1.67;0.67;;;;;32.69;16.96;100750.78;5075245;27;45478;-75
2023/03/28 10:15:03;;;;;;;;;0.00;0.00;;;;;32.72;16.57;100741.59;5077010;28;45384;-74
2023/03/28 10:17:33;;;;;;;;;1.00;0.67;;;;;32.57;16.73;100737.97;5077174;28;45589;-74
2023/03/28 10:20:20;;;;;;;;;1.00;0.00;;;;;32.59;16.22;100732.47;5075978;28;45327;-74
2023/03/28 10:22:53;;;;;;;;;1.33;0.00;;;;;32.37;17.26;100739.13;5076331;28;45446;-74
2023/03/28 10:25:41;;;;;;;;;0.00;0.00;;;;;32.00;17.10;100725.00;5077074;28;45326;-74
2023/03/28 10:28:16;;;;;;;;;0.00;0.00;;;;;31.75;18.04;100738.13;5076042;28;45460;-73
2023/03/28 10:30:43;;;;;;;;;0.00;0.00;;;;;31.50;17.79;100739.47;5075976;28;46359;-74
2023/03/28 10:33:19;;;;;;;;;0.00;0.00;;;;;31.50;17.36;100729.53;5074320;28;45532;-74
2023/03/28 10:35:52;;;;;;;;;1.00;0.67;;;;;31.58;17.45;100741.75;5060067;28;45383;-74
2023/03/28 10:38:19;;;;;;;;;0.00;0.00;;;;;31.49;17.30;100735.03;5075270;28;45508;-75
2023/03/28 10:40:59;;;;;;;;;1.33;1.00;;;;;31.21;18.13;100735.59;5076324;28;46130;-71
2023/03/28 10:43:35;;;;;;;;;0.67;0.67;;;;;30.83;18.04;100733.94;5075418;28;45441;-73
2023/03/28 10:46:04;;;;;;;;;0.00;0.00;;;;;30.91;18.51;100731.75;5076830;28;45532;-75
2023/03/28 10:48:33;;;;;;;;;0.00;0.00;;;;;30.86;17.95;100714.03;5076760;28;45348;-74
2023/03/28 10:51:07;;;;;;;;;1.00;0.67;;;;;30.80;18.25;100725.13;5075803;28;45563;-74
2023/03/28 10:53:50;;;;;;;;;0.00;0.00;;;;;30.47;18.62;100732.16;5075167;28;45416;-74
2023/03/28 10:56:23;;;;;;;;;0.00;0.00;;;;;30.38;19.19;100727.25;5068567;28;45551;-74
2023/03/28 10:59:20;;;;;;;;;0.67;0.67;;;;;29.80;19.78;100719.25;5075148;28;45475;-74
2023/03/28 11:01:51;;;;;;;;;1.33;1.33;;;;;29.74;19.57;100720.41;5057044;28;45713;-74
2023/03/28 11:04:35;;;;;;;;;3.67;3.00;;;;;29.65;20.55;100712.75;5075855;27;45866;-73
2023/03/28 11:07:04;;;;;;;;;1.67;1.67;;;;;29.48;20.03;100735.94;5075880;28;45567;-74
2023/03/28 11:09:55;;;;;;;;;1.67;0.67;;;;;29.12;20.55;100739.34;5076966;28;45602;-73
2023/03/28 11:12:45;;;;;;;;;0.67;0.67;;;;;28.90;20.49;100728.63;5056046;28;45488;-74
2023/03/28 11:15:39;;;;;;;;;1.00;1.00;;;;;28.73;21.03;100725.81;5067803;28;45580;-73
2023/03/28 11:18:15;;;;;;;;;1.00;1.00;;;;;28.68;20.92;100723.28;5075369;28;45414;-74
2023/03/28 11:20:47;;;;;;;;;1.00;0.00;;;;;28.63;21.41;100719.94;5074843;28;45395;-74
2023/03/28 11:23:42;;;;;;;;;1.00;1.00;;;;;28.62;21.38;100717.31;5072696;28;46674;-76
2023/03/28 11:26:38;;;;;;;;;1.00;1.00;;;;;28.50;20.96;100721.34;5073810;28;45362;-75
2023/03/28 11:29:38;;;;;;;;;0.00;0.00;;;;;28.30;21.31;100720.38;5068847;28;45481;-75
2023/03/28 11:32:19;;;;;;;;;0.00;0.00;;;;;28.06;20.78;100719.56;5075378;28;45452;-74
2023/03/28 11:35:04;;;;;;;;;0.00;0.00;;;;;27.77;21.73;100708.13;5059846;28;46117;-75
2023/03/28 11:37:43;;;;;;;;;1.00;1.00;;;;;27.57;21.85;100713.38;5060602;28;45449;-75
2023/03/28 11:40:25;;;;;;;;;1.00;0.00;;;;;27.42;22.30;100714.84;5075194;28;45411;-77
2023/03/28 11:42:59;;;;;;;;;2.00;2.00;;;;;27.34;21.88;100720.50;5076017;28;45445;-73
2023/03/28 11:45:50;;;;;;;;;9.67;9.67;;;;;27.36;22.49;100712.41;5074582;28;46021;-74
2023/03/28 11:48:37;;;;;;;;;0.00;0.00;;;;;27.28;22.49;100710.00;5075257;28;45652;-74
2023/03/28 11:51:17;;;;;;;;;1.00;0.67;;;;;27.23;22.76;100717.28;5074874;28;45591;-74